sensor_id;sensor_type;location;lat;lon;timestamp;pressure;altitude;pressure_sealevel;temperature;humidity
6532;BME280;3299;42.004;24.868;2023-03-13T00:00:51;98518.31;;;6.77;53.41
6532;BME280;3299;42.004;24.868;2023-03-13T00:03:16;98413.47;;;5.85;52.79
6532;BME280;3299;42.004;24.868;2023-03-13T00:05:42;98529.84;;;6.19;53.69
6532;BME280;3299;42.004;24.868;2023-03-13T00:08:07;98509.91;;;6.24;53.67
6532;BME280;3299;42.004;24.868;2023-03-13T00:10:36;98509.69;;;6.12;54.34
6532;BME280;3299;42.004;24.868;2023-03-13T00:13:02;98469.28;;;5.98;54.02
6532;BME280;3299;42.004;24.868;2023-03-13T00:15:28;98427.16;;;5.85;53.21
6532;BME280;3299;42.004;24.868;2023-03-13T00:17:53;98523.22;;;6.32;53.53
6532;BME280;3299;42.004;24.868;2023-03-13T00:20:18;98472.44;;;5.86;54.53
6532;BME280;3299;42.004;24.868;2023-03-13T00:22:44;98490.41;;;5.86;53.83
6532;BME280;3299;42.004;24.868;2023-03-13T00:25:09;98477.16;;;5.60;54.64
6532;BME280;3299;42.004;24.868;2023-03-13T00:27:34;98507.50;;;5.69;55.27
6532;BME280;3299;42.004;24.868;2023-03-13T00:30:00;98489.19;;;5.58;55.19
6532;BME280;3299;42.004;24.868;2023-03-13T00:32:25;98479.91;;;5.38;56.41
6532;BME280;3299;42.004;24.868;2023-03-13T00:34:51;98511.44;;;5.40;56.74
6532;BME280;3299;42.004;24.868;2023-03-13T00:37:16;98523.13;;;5.64;56.22
6532;BME280;3299;42.004;24.868;2023-03-13T00:39:42;98415.69;;;5.04;55.89
6532;BME280;3299;42.004;24.868;2023-03-13T00:42:07;98525.22;;;5.56;56.32
6532;BME280;3299;42.004;24.868;2023-03-13T00:44:32;98468.16;;;5.33;56.35
6532;BME280;3299;42.004;24.868;2023-03-13T00:46:58;98491.63;;;5.61;56.21
6532;BME280;3299;42.004;24.868;2023-03-13T00:49:23;98514.06;;;6.10;54.01
6532;BME280;3299;42.004;24.868;2023-03-13T00:51:49;98424.41;;;5.88;52.70
6532;BME280;3299;42.004;24.868;2023-03-13T00:54:14;98528.97;;;6.37;53.56
6532;BME280;3299;42.004;24.868;2023-03-13T00:56:39;98482.13;;;5.98;53.82
6532;BME280;3299;42.004;24.868;2023-03-13T00:59:05;98417.66;;;5.69;53.95
6532;BME280;3299;42.004;24.868;2023-03-13T01:01:32;98449.69;;;5.79;53.73
6532;BME280;3299;42.004;24.868;2023-03-13T01:04:00;98526.91;;;6.44;52.45
6532;BME280;3299;42.004;24.868;2023-03-13T01:06:31;98480.47;;;5.97;53.17
6532;BME280;3299;42.004;24.868;2023-03-13T01:08:57;98471.53;;;6.04;52.43
6532;BME280;3299;42.004;24.868;2023-03-13T01:11:26;98425.41;;;5.33;53.62
6532;BME280;3299;42.004;24.868;2023-03-13T01:13:55;98427.03;;;5.17;54.78
6532;BME280;3299;42.004;24.868;2023-03-13T01:16:21;98449.97;;;5.56;54.55
6532;BME280;3299;42.004;24.868;2023-03-13T01:18:51;98429.97;;;5.62;53.86
6532;BME280;3299;42.004;24.868;2023-03-13T01:21:18;98536.38;;;6.26;53.31
6532;BME280;3299;42.004;24.868;2023-03-13T01:23:45;98503.88;;;6.08;53.96
6532;BME280;3299;42.004;24.868;2023-03-13T01:26:11;98524.94;;;6.15;53.94
6532;BME280;3299;42.004;24.868;2023-03-13T01:28:37;98429.41;;;5.39;55.03
6532;BME280;3299;42.004;24.868;2023-03-13T01:31:14;98459.22;;;5.41;55.99
6532;BME280;3299;42.004;24.868;2023-03-13T01:33:40;98413.06;;;5.23;55.85
6532;BME280;3299;42.004;24.868;2023-03-13T01:36:06;98512.97;;;5.80;55.92
6532;BME280;3299;42.004;24.868;2023-03-13T01:38:31;98421.16;;;5.15;56.64
6532;BME280;3299;42.004;24.868;2023-03-13T01:40:57;98521.56;;;5.79;56.23
6532;BME280;3299;42.004;24.868;2023-03-13T01:43:25;98505.91;;;5.85;55.31
6532;BME280;3299;42.004;24.868;2023-03-13T01:50:52;98522.75;;;6.07;55.63
6532;BME280;3299;42.004;24.868;2023-03-13T01:53:18;98488.16;;;5.80;55.86
6532;BME280;3299;42.004;24.868;2023-03-13T01:55:44;98434.53;;;5.39;56.08
6532;BME280;3299;42.004;24.868;2023-03-13T01:58:09;98473.00;;;5.74;54.99
6532;BME280;3299;42.004;24.868;2023-03-13T02:00:35;98501.22;;;5.93;54.65
6532;BME280;3299;42.004;24.868;2023-03-13T02:03:06;98446.13;;;5.29;55.77
6532;BME280;3299;42.004;24.868;2023-03-13T02:05:33;98488.81;;;5.48;55.68
6532;BME280;3299;42.004;24.868;2023-03-13T02:10:38;98532.56;;;5.08;57.44
6532;BME280;3299;42.004;24.868;2023-03-13T02:13:05;98495.91;;;4.69;58.85
6532;BME280;3299;42.004;24.868;2023-03-13T02:15:31;98551.75;;;4.81;59.54
6532;BME280;3299;42.004;24.868;2023-03-13T02:17:57;98513.19;;;4.44;60.54
6532;BME280;3299;42.004;24.868;2023-03-13T02:20:25;98541.25;;;4.67;60.60
6532;BME280;3299;42.004;24.868;2023-03-13T02:23:01;98518.16;;;4.29;60.90
6532;BME280;3299;42.004;24.868;2023-03-13T02:28:06;98560.09;;;4.46;61.87
6532;BME280;3299;42.004;24.868;2023-03-13T02:30:33;98483.38;;;4.03;61.70
6532;BME280;3299;42.004;24.868;2023-03-13T02:33:00;98582.66;;;4.58;62.00
6532;BME280;3299;42.004;24.868;2023-03-13T02:35:26;98583.03;;;4.69;61.81
6532;BME280;3299;42.004;24.868;2023-03-13T02:37:57;98577.25;;;4.64;61.34
6532;BME280;3299;42.004;24.868;2023-03-13T02:40:29;98605.00;;;4.55;62.34
6532;BME280;3299;42.004;24.868;2023-03-13T02:42:55;98528.69;;;4.21;62.43
6532;BME280;3299;42.004;24.868;2023-03-13T02:45:24;98589.44;;;4.39;62.46
6532;BME280;3299;42.004;24.868;2023-03-13T02:47:49;98581.28;;;4.30;62.87
6532;BME280;3299;42.004;24.868;2023-03-13T02:50:15;98515.38;;;3.93;62.77
6532;BME280;3299;42.004;24.868;2023-03-13T02:52:50;98570.72;;;4.17;62.47
6532;BME280;3299;42.004;24.868;2023-03-13T02:55:23;98589.84;;;4.29;63.48
6532;BME280;3299;42.004;24.868;2023-03-13T02:57:49;98568.53;;;3.87;63.94
6532;BME280;3299;42.004;24.868;2023-03-13T03:00:15;98634.34;;;4.26;63.65
6532;BME280;3299;42.004;24.868;2023-03-13T03:02:42;98609.63;;;4.25;63.11
6532;BME280;3299;42.004;24.868;2023-03-13T03:05:09;98619.72;;;4.08;63.65
6532;BME280;3299;42.004;24.868;2023-03-13T03:07:34;98577.28;;;3.81;64.32
6532;BME280;3299;42.004;24.868;2023-03-13T03:10:00;98598.34;;;3.88;64.90
6532;BME280;3299;42.004;24.868;2023-03-13T03:12:26;98558.34;;;3.64;65.27
6532;BME280;3299;42.004;24.868;2023-03-13T03:14:51;98639.53;;;4.03;65.44
6532;BME280;3299;42.004;24.868;2023-03-13T03:17:16;98623.00;;;3.90;65.44
6532;BME280;3299;42.004;24.868;2023-03-13T03:19:42;98569.06;;;3.52;65.62
6532;BME280;3299;42.004;24.868;2023-03-13T03:22:07;98555.13;;;3.37;66.02
6532;BME280;3299;42.004;24.868;2023-03-13T03:24:33;98614.88;;;3.79;65.62
6532;BME280;3299;42.004;24.868;2023-03-13T03:26:58;98571.16;;;3.64;65.13
6532;BME280;3299;42.004;24.868;2023-03-13T03:29:23;98572.00;;;3.64;65.05
6532;BME280;3299;42.004;24.868;2023-03-13T03:31:49;98569.97;;;3.72;64.46
6532;BME280;3299;42.004;24.868;2023-03-13T03:34:14;98630.19;;;4.02;64.79
6532;BME280;3299;42.004;24.868;2023-03-13T03:36:40;98682.16;;;4.47;64.35
6532;BME280;3299;42.004;24.868;2023-03-13T03:39:05;98688.69;;;4.54;63.20
6532;BME280;3299;42.004;24.868;2023-03-13T03:41:31;98587.28;;;3.87;63.17
6532;BME280;3299;42.004;24.868;2023-03-13T03:43:56;98681.66;;;4.59;62.23
6532;BME280;3299;42.004;24.868;2023-03-13T03:46:21;98672.41;;;4.35;63.51
6532;BME280;3299;42.004;24.868;2023-03-13T03:48:47;98638.09;;;4.18;63.74
6532;BME280;3299;42.004;24.868;2023-03-13T03:51:12;98631.38;;;4.15;64.29
6532;BME280;3299;42.004;24.868;2023-03-13T03:53:38;98588.59;;;3.76;64.66
6532;BME280;3299;42.004;24.868;2023-03-13T03:56:04;98620.84;;;3.80;65.28
6532;BME280;3299;42.004;24.868;2023-03-13T03:58:29;98626.78;;;3.80;65.74
6532;BME280;3299;42.004;24.868;2023-03-13T04:00:57;98650.25;;;3.91;65.44
6532;BME280;3299;42.004;24.868;2023-03-13T04:03:23;98691.81;;;4.19;65.51
6532;BME280;3299;42.004;24.868;2023-03-13T04:05:49;98628.94;;;3.69;66.09
6532;BME280;3299;42.004;24.868;2023-03-13T04:08:15;98622.94;;;3.70;65.94
6532;BME280;3299;42.004;24.868;2023-03-13T04:10:40;98633.59;;;3.81;66.43
6532;BME280;3299;42.004;24.868;2023-03-13T04:13:05;98683.38;;;3.96;66.69
6532;BME280;3299;42.004;24.868;2023-03-13T04:15:31;98647.09;;;3.40;68.40
6532;BME280;3299;42.004;24.868;2023-03-13T04:17:56;98610.50;;;3.15;68.90
6532;BME280;3299;42.004;24.868;2023-03-13T04:20:22;98673.22;;;3.48;69.70
6532;BME280;3299;42.004;24.868;2023-03-13T04:22:47;98610.16;;;3.01;69.57
6532;BME280;3299;42.004;24.868;2023-03-13T04:25:12;98695.72;;;3.39;70.58
6532;BME280;3299;42.004;24.868;2023-03-13T04:27:38;98624.91;;;2.93;70.66
6532;BME280;3299;42.004;24.868;2023-03-13T04:30:04;98690.09;;;3.29;70.62
6532;BME280;3299;42.004;24.868;2023-03-13T04:32:29;98672.47;;;3.22;70.33
6532;BME280;3299;42.004;24.868;2023-03-13T04:34:55;98697.34;;;3.41;69.22
6532;BME280;3299;42.004;24.868;2023-03-13T04:37:20;98689.72;;;3.40;68.80
6532;BME280;3299;42.004;24.868;2023-03-13T04:39:46;98717.72;;;3.43;68.20
6532;BME280;3299;42.004;24.868;2023-03-13T04:42:11;98755.19;;;3.68;68.07
6532;BME280;3299;42.004;24.868;2023-03-13T04:44:37;98730.38;;;3.47;68.74
6532;BME280;3299;42.004;24.868;2023-03-13T04:47:03;98668.00;;;3.04;68.64
6532;BME280;3299;42.004;24.868;2023-03-13T04:49:29;98764.38;;;3.74;68.49
6532;BME280;3299;42.004;24.868;2023-03-13T04:51:55;98758.63;;;3.67;68.95
6532;BME280;3299;42.004;24.868;2023-03-13T04:54:20;98756.97;;;3.66;68.78
6532;BME280;3299;42.004;24.868;2023-03-13T04:56:46;98717.19;;;3.58;68.24
6532;BME280;3299;42.004;24.868;2023-03-13T04:59:13;98717.41;;;3.52;68.81
6532;BME280;3299;42.004;24.868;2023-03-13T05:01:39;98686.53;;;3.33;68.73
6532;BME280;3299;42.004;24.868;2023-03-13T05:04:05;98726.69;;;3.54;68.61
6532;BME280;3299;42.004;24.868;2023-03-13T05:06:31;98716.47;;;3.54;68.70
6532;BME280;3299;42.004;24.868;2023-03-13T05:08:56;98732.59;;;3.79;69.35
6532;BME280;3299;42.004;24.868;2023-03-13T05:11:21;98692.78;;;3.49;68.59
6532;BME280;3299;42.004;24.868;2023-03-13T05:13:47;98698.56;;;3.54;68.70
6532;BME280;3299;42.004;24.868;2023-03-13T05:16:12;98705.03;;;3.64;68.46
6532;BME280;3299;42.004;24.868;2023-03-13T05:18:38;98709.25;;;3.65;68.44
6532;BME280;3299;42.004;24.868;2023-03-13T05:21:04;98764.53;;;3.92;68.73
6532;BME280;3299;42.004;24.868;2023-03-13T05:23:29;98751.31;;;3.81;68.65
6532;BME280;3299;42.004;24.868;2023-03-13T05:25:57;98719.53;;;3.64;68.92
6532;BME280;3299;42.004;24.868;2023-03-13T05:28:23;98803.94;;;4.11;69.19
6532;BME280;3299;42.004;24.868;2023-03-13T05:30:51;98784.91;;;4.18;69.12
6532;BME280;3299;42.004;24.868;2023-03-13T05:33:16;98753.78;;;4.06;68.73
6532;BME280;3299;42.004;24.868;2023-03-13T05:35:44;98769.81;;;4.11;68.70
6532;BME280;3299;42.004;24.868;2023-03-13T05:38:10;98814.47;;;4.27;69.01
6532;BME280;3299;42.004;24.868;2023-03-13T05:40:35;98734.25;;;3.80;69.54
6532;BME280;3299;42.004;24.868;2023-03-13T05:43:00;98802.28;;;4.33;69.03
6532;BME280;3299;42.004;24.868;2023-03-13T05:45:26;98788.78;;;4.28;68.87
6532;BME280;3299;42.004;24.868;2023-03-13T05:47:51;98811.91;;;4.48;68.62
6532;BME280;3299;42.004;24.868;2023-03-13T05:50:17;98728.13;;;4.07;68.36
6532;BME280;3299;42.004;24.868;2023-03-13T05:52:42;98806.13;;;4.65;67.88
6532;BME280;3299;42.004;24.868;2023-03-13T05:55:08;98826.59;;;4.66;67.36
6532;BME280;3299;42.004;24.868;2023-03-13T05:57:33;98838.41;;;4.70;67.88
6532;BME280;3299;42.004;24.868;2023-03-13T05:59:58;98840.97;;;4.92;67.90
6532;BME280;3299;42.004;24.868;2023-03-13T06:02:24;98818.50;;;4.98;67.09
6532;BME280;3299;42.004;24.868;2023-03-13T06:04:50;98748.00;;;4.67;65.77
6532;BME280;3299;42.004;24.868;2023-03-13T06:07:16;98798.44;;;5.08;64.59
6532;BME280;3299;42.004;24.868;2023-03-13T06:09:42;98761.53;;;4.90;64.52
6532;BME280;3299;42.004;24.868;2023-03-13T06:12:10;98810.06;;;5.36;64.01
6532;BME280;3299;42.004;24.868;2023-03-13T06:14:36;98810.91;;;5.57;62.40
6532;BME280;3299;42.004;24.868;2023-03-13T06:17:03;98770.56;;;5.40;60.14
6532;BME280;3299;42.004;24.868;2023-03-13T06:19:28;98866.16;;;6.05;58.71
6532;BME280;3299;42.004;24.868;2023-03-13T06:21:54;98866.53;;;6.16;58.74
6532;BME280;3299;42.004;24.868;2023-03-13T06:24:19;98832.78;;;6.05;58.63
6532;BME280;3299;42.004;24.868;2023-03-13T06:26:47;98785.81;;;5.83;58.12
6532;BME280;3299;42.004;24.868;2023-03-13T06:29:13;98887.78;;;6.40;57.79
6532;BME280;3299;42.004;24.868;2023-03-13T06:31:38;98806.47;;;6.00;57.36
6532;BME280;3299;42.004;24.868;2023-03-13T06:34:03;98863.25;;;6.51;57.74
6532;BME280;3299;42.004;24.868;2023-03-13T06:36:29;98825.31;;;6.38;56.34
6532;BME280;3299;42.004;24.868;2023-03-13T06:38:54;98882.81;;;6.35;56.69
6532;BME280;3299;42.004;24.868;2023-03-13T06:41:20;98839.66;;;6.23;56.77
6532;BME280;3299;42.004;24.868;2023-03-13T06:43:45;98852.59;;;6.40;57.39
6532;BME280;3299;42.004;24.868;2023-03-13T06:46:16;98833.91;;;6.37;57.51
6532;BME280;3299;42.004;24.868;2023-03-13T06:48:41;98784.34;;;6.16;57.45
6532;BME280;3299;42.004;24.868;2023-03-13T06:51:15;98817.88;;;6.50;57.26
6532;BME280;3299;42.004;24.868;2023-03-13T06:53:41;98858.06;;;6.88;56.54
6532;BME280;3299;42.004;24.868;2023-03-13T06:56:07;98809.81;;;6.58;56.87
6532;BME280;3299;42.004;24.868;2023-03-13T06:58:32;98789.88;;;6.44;57.02
6532;BME280;3299;42.004;24.868;2023-03-13T07:01:05;98792.81;;;6.55;56.40
6532;BME280;3299;42.004;24.868;2023-03-13T07:03:30;98820.97;;;6.94;55.42
6532;BME280;3299;42.004;24.868;2023-03-13T07:05:57;98785.13;;;6.72;55.00
6532;BME280;3299;42.004;24.868;2023-03-13T07:08:23;98795.91;;;6.97;54.56
6532;BME280;3299;42.004;24.868;2023-03-13T07:10:50;98786.84;;;7.07;54.19
6532;BME280;3299;42.004;24.868;2023-03-13T07:13:16;98808.34;;;7.40;53.11
6532;BME280;3299;42.004;24.868;2023-03-13T07:15:44;98860.97;;;7.86;51.96
6532;BME280;3299;42.004;24.868;2023-03-13T07:18:09;98781.47;;;7.46;51.67
6532;BME280;3299;42.004;24.868;2023-03-13T07:20:35;98863.53;;;8.03;51.65
6532;BME280;3299;42.004;24.868;2023-03-13T07:23:03;98858.88;;;8.09;51.71
6532;BME280;3299;42.004;24.868;2023-03-13T07:25:28;98811.31;;;7.99;51.62
6532;BME280;3299;42.004;24.868;2023-03-13T07:27:54;98852.69;;;8.46;51.34
6532;BME280;3299;42.004;24.868;2023-03-13T07:30:20;98873.50;;;8.74;51.02
6532;BME280;3299;42.004;24.868;2023-03-13T07:32:46;98814.66;;;8.49;50.50
6532;BME280;3299;42.004;24.868;2023-03-13T07:35:11;98800.13;;;8.48;50.30
6532;BME280;3299;42.004;24.868;2023-03-13T07:37:37;98835.72;;;8.57;50.23
6532;BME280;3299;42.004;24.868;2023-03-13T07:40:02;98874.66;;;8.84;50.54
6532;BME280;3299;42.004;24.868;2023-03-13T07:42:29;98785.28;;;8.21;50.83
6532;BME280;3299;42.004;24.868;2023-03-13T07:44:54;98816.66;;;8.44;50.93
6532;BME280;3299;42.004;24.868;2023-03-13T07:47:19;98854.03;;;8.68;51.10
6532;BME280;3299;42.004;24.868;2023-03-13T07:49:45;98868.16;;;8.92;50.49
6532;BME280;3299;42.004;24.868;2023-03-13T07:52:11;98818.94;;;8.81;49.78
6532;BME280;3299;42.004;24.868;2023-03-13T07:54:36;98862.34;;;9.20;49.76
6532;BME280;3299;42.004;24.868;2023-03-13T07:57:02;98858.88;;;9.35;49.79
6532;BME280;3299;42.004;24.868;2023-03-13T07:59:28;98833.34;;;9.30;49.32
6532;BME280;3299;42.004;24.868;2023-03-13T08:01:53;98876.56;;;9.72;49.03
6532;BME280;3299;42.004;24.868;2023-03-13T08:04:19;98802.38;;;9.44;48.44
6532;BME280;3299;42.004;24.868;2023-03-13T08:06:44;98834.28;;;9.86;47.79
6532;BME280;3299;42.004;24.868;2023-03-13T08:09:10;98796.19;;;9.76;47.61
6532;BME280;3299;42.004;24.868;2023-03-13T08:11:37;98819.56;;;10.02;47.85
6532;BME280;3299;42.004;24.868;2023-03-13T08:14:04;98837.88;;;10.13;47.05
6532;BME280;3299;42.004;24.868;2023-03-13T08:16:32;98823.16;;;10.14;47.00
6532;BME280;3299;42.004;24.868;2023-03-13T08:18:59;98848.47;;;10.37;46.98
6532;BME280;3299;42.004;24.868;2023-03-13T08:21:28;98886.09;;;10.70;45.98
6532;BME280;3299;42.004;24.868;2023-03-13T08:23:56;98878.47;;;10.81;45.54
6532;BME280;3299;42.004;24.868;2023-03-13T08:26:27;98796.91;;;10.48;45.69
6532;BME280;3299;42.004;24.868;2023-03-13T08:28:58;98796.34;;;10.57;45.29
6532;BME280;3299;42.004;24.868;2023-03-13T08:31:29;98810.41;;;10.53;45.19
6532;BME280;3299;42.004;24.868;2023-03-13T08:33:55;98839.38;;;10.72;45.10
6532;BME280;3299;42.004;24.868;2023-03-13T08:36:23;98866.69;;;10.90;45.08
6532;BME280;3299;42.004;24.868;2023-03-13T08:38:50;98853.88;;;10.88;43.45
6532;BME280;3299;42.004;24.868;2023-03-13T08:41:18;98793.31;;;10.64;43.13
6532;BME280;3299;42.004;24.868;2023-03-13T08:43:45;98877.16;;;11.29;42.30
6532;BME280;3299;42.004;24.868;2023-03-13T08:46:11;98814.44;;;10.97;42.11
6532;BME280;3299;42.004;24.868;2023-03-13T08:48:36;98821.63;;;11.06;42.27
6532;BME280;3299;42.004;24.868;2023-03-13T08:51:10;98867.63;;;11.29;43.01
6532;BME280;3299;42.004;24.868;2023-03-13T08:53:37;98850.78;;;10.96;43.17
6532;BME280;3299;42.004;24.868;2023-03-13T08:56:03;98815.44;;;10.68;42.13
6532;BME280;3299;42.004;24.868;2023-03-13T08:58:29;98825.66;;;10.84;42.58
6532;BME280;3299;42.004;24.868;2023-03-13T09:01:10;98822.97;;;10.99;42.02
6532;BME280;3299;42.004;24.868;2023-03-13T09:03:36;98875.41;;;11.42;41.95
6532;BME280;3299;42.004;24.868;2023-03-13T09:06:02;98804.31;;;11.07;41.29
6532;BME280;3299;42.004;24.868;2023-03-13T09:08:29;98863.50;;;11.39;41.99
6532;BME280;3299;42.004;24.868;2023-03-13T09:11:06;98823.38;;;11.06;41.45
6532;BME280;3299;42.004;24.868;2023-03-13T09:13:34;98776.38;;;10.73;41.93
6532;BME280;3299;42.004;24.868;2023-03-13T09:16:08;98843.56;;;11.27;41.83
6532;BME280;3299;42.004;24.868;2023-03-13T09:18:34;98820.50;;;11.37;41.54
6532;BME280;3299;42.004;24.868;2023-03-13T09:21:00;98846.09;;;11.68;41.08
6532;BME280;3299;42.004;24.868;2023-03-13T09:23:26;98777.59;;;11.33;40.23
6532;BME280;3299;42.004;24.868;2023-03-13T09:25:55;98823.72;;;11.53;39.61
6532;BME280;3299;42.004;24.868;2023-03-13T09:28:23;98818.00;;;11.48;40.17
6532;BME280;3299;42.004;24.868;2023-03-13T09:30:48;98864.97;;;11.70;40.53
6532;BME280;3299;42.004;24.868;2023-03-13T09:33:17;98784.78;;;11.15;39.91
6532;BME280;3299;42.004;24.868;2023-03-13T09:35:43;98846.03;;;11.55;39.26
6532;BME280;3299;42.004;24.868;2023-03-13T09:38:15;98852.13;;;11.81;39.22
6532;BME280;3299;42.004;24.868;2023-03-13T09:40:45;98859.41;;;12.01;39.47
6532;BME280;3299;42.004;24.868;2023-03-13T09:45:53;98810.25;;;11.48;39.50
6532;BME280;3299;42.004;24.868;2023-03-13T09:48:32;98802.19;;;11.52;38.85
6532;BME280;3299;42.004;24.868;2023-03-13T09:51:25;98858.47;;;12.02;38.70
6532;BME280;3299;42.004;24.868;2023-03-13T09:56:38;98817.59;;;11.93;35.94
6532;BME280;3299;42.004;24.868;2023-03-13T09:59:21;98803.41;;;11.98;35.27
6532;BME280;3299;42.004;24.868;2023-03-13T10:01:53;98816.56;;;12.08;35.30
6532;BME280;3299;42.004;24.868;2023-03-13T10:04:26;98841.06;;;12.16;35.23
6532;BME280;3299;42.004;24.868;2023-03-13T10:06:55;98841.44;;;12.23;35.19
6532;BME280;3299;42.004;24.868;2023-03-13T10:09:31;98755.91;;;11.73;35.33
6532;BME280;3299;42.004;24.868;2023-03-13T10:12:09;98807.41;;;11.65;35.87
6532;BME280;3299;42.004;24.868;2023-03-13T10:17:34;98734.31;;;11.72;35.24
6532;BME280;3299;42.004;24.868;2023-03-13T10:20:26;98827.19;;;12.41;33.65
6532;BME280;3299;42.004;24.868;2023-03-13T10:23:05;98798.03;;;12.50;33.71
6532;BME280;3299;42.004;24.868;2023-03-13T10:25:34;98757.25;;;12.39;32.94
6532;BME280;3299;42.004;24.868;2023-03-13T10:28:00;98738.16;;;12.40;33.32
6532;BME280;3299;42.004;24.868;2023-03-13T10:35:35;98733.31;;;12.83;31.55
6532;BME280;3299;42.004;24.868;2023-03-13T10:38:20;98817.41;;;12.93;29.67
6532;BME280;3299;42.004;24.868;2023-03-13T10:41:00;98758.66;;;12.56;28.96
6532;BME280;3299;42.004;24.868;2023-03-13T10:43:27;98741.88;;;12.49;30.60
6532;BME280;3299;42.004;24.868;2023-03-13T10:45:53;98809.44;;;12.96;30.31
6532;BME280;3299;42.004;24.868;2023-03-13T10:48:28;98713.06;;;12.28;30.39
6532;BME280;3299;42.004;24.868;2023-03-13T10:50:55;98761.91;;;12.83;30.78
6532;BME280;3299;42.004;24.868;2023-03-13T10:53:32;98763.19;;;13.01;30.58
6532;BME280;3299;42.004;24.868;2023-03-13T11:03:51;98778.19;;;13.32;31.15
6532;BME280;3299;42.004;24.868;2023-03-13T11:06:30;98785.06;;;13.44;30.20
6532;BME280;3299;42.004;24.868;2023-03-13T11:09:09;98782.53;;;13.66;30.50
6532;BME280;3299;42.004;24.868;2023-03-13T11:14:16;98717.06;;;13.72;31.22
6532;BME280;3299;42.004;24.868;2023-03-13T11:16:53;98709.75;;;13.88;30.72
6532;BME280;3299;42.004;24.868;2023-03-13T11:19:29;98767.34;;;14.05;30.05
6532;BME280;3299;42.004;24.868;2023-03-13T11:24:49;98763.91;;;14.16;29.42
6532;BME280;3299;42.004;24.868;2023-03-13T11:27:45;98746.38;;;14.51;29.24
6532;BME280;3299;42.004;24.868;2023-03-13T11:35:26;98739.06;;;14.45;29.08
6532;BME280;3299;42.004;24.868;2023-03-13T11:37:58;98724.88;;;13.83;29.59
6532;BME280;3299;42.004;24.868;2023-03-13T11:43:13;98737.91;;;13.94;28.70
6532;BME280;3299;42.004;24.868;2023-03-13T11:51:15;98734.25;;;14.83;27.50
6532;BME280;3299;42.004;24.868;2023-03-13T11:56:40;98722.19;;;14.71;27.38
6532;BME280;3299;42.004;24.868;2023-03-13T12:01:59;98662.19;;;14.93;27.48
6532;BME280;3299;42.004;24.868;2023-03-13T12:04:48;98640.34;;;15.05;26.30
6532;BME280;3299;42.004;24.868;2023-03-13T12:07:27;98693.50;;;15.13;25.84
6532;BME280;3299;42.004;24.868;2023-03-13T12:10:02;98679.16;;;15.08;26.40
6532;BME280;3299;42.004;24.868;2023-03-13T12:15:22;98650.94;;;14.92;25.62
6532;BME280;3299;42.004;24.868;2023-03-13T12:23:20;98699.22;;;15.28;25.67
6532;BME280;3299;42.004;24.868;2023-03-13T12:25:53;98694.13;;;15.06;25.51
6532;BME280;3299;42.004;24.868;2023-03-13T12:28:39;98672.50;;;15.15;25.39
6532;BME280;3299;42.004;24.868;2023-03-13T12:34:12;98688.75;;;15.59;25.33
6532;BME280;3299;42.004;24.868;2023-03-13T12:36:48;98645.47;;;15.87;25.40
6532;BME280;3299;42.004;24.868;2023-03-13T12:41:47;98612.41;;;15.67;24.85
6532;BME280;3299;42.004;24.868;2023-03-13T12:44:17;98677.22;;;15.92;24.70
6532;BME280;3299;42.004;24.868;2023-03-13T12:47:07;98684.28;;;15.80;24.80
6532;BME280;3299;42.004;24.868;2023-03-13T12:52:38;98685.09;;;16.11;24.33
6532;BME280;3299;42.004;24.868;2023-03-13T13:00:44;98657.94;;;16.23;23.00
6532;BME280;3299;42.004;24.868;2023-03-13T13:03:29;98645.09;;;16.50;22.77
6532;BME280;3299;42.004;24.868;2023-03-13T13:06:14;98693.53;;;16.73;23.00
6532;BME280;3299;42.004;24.868;2023-03-13T13:08:43;98672.06;;;16.69;23.21
6532;BME280;3299;42.004;24.868;2023-03-13T13:16:47;98688.59;;;16.21;24.43
6532;BME280;3299;42.004;24.868;2023-03-13T13:24:56;98643.44;;;16.49;24.28
6532;BME280;3299;42.004;24.868;2023-03-13T13:30:24;98646.41;;;17.30;23.05
6532;BME280;3299;42.004;24.868;2023-03-13T13:32:50;98679.16;;;17.62;22.82
6532;BME280;3299;42.004;24.868;2023-03-13T13:35:34;98681.94;;;17.42;22.88
6532;BME280;3299;42.004;24.868;2023-03-13T13:41:03;98642.91;;;16.83;23.16
6532;BME280;3299;42.004;24.868;2023-03-13T13:43:39;98666.25;;;17.13;22.99
6532;BME280;3299;42.004;24.868;2023-03-13T13:51:31;98590.91;;;16.90;22.78
6532;BME280;3299;42.004;24.868;2023-03-13T14:01:26;98646.94;;;17.52;23.31
6532;BME280;3299;42.004;24.868;2023-03-13T14:04:03;98586.66;;;16.70;22.59
6532;BME280;3299;42.004;24.868;2023-03-13T14:06:34;98571.34;;;16.27;22.92
6532;BME280;3299;42.004;24.868;2023-03-13T14:12:29;98657.16;;;16.02;23.61
6532;BME280;3299;42.004;24.868;2023-03-13T14:15:19;98650.84;;;15.65;23.76
6532;BME280;3299;42.004;24.868;2023-03-13T14:20:32;98576.56;;;14.68;26.25
6532;BME280;3299;42.004;24.868;2023-03-13T14:23:01;98608.84;;;14.56;25.18
6532;BME280;3299;42.004;24.868;2023-03-13T14:25:39;98591.22;;;14.28;25.05
6532;BME280;3299;42.004;24.868;2023-03-13T14:28:24;98562.03;;;14.02;26.15
6532;BME280;3299;42.004;24.868;2023-03-13T14:30:52;98581.94;;;14.35;25.81
6532;BME280;3299;42.004;24.868;2023-03-13T14:33:18;98590.09;;;14.30;25.70
6532;BME280;3299;42.004;24.868;2023-03-13T14:35:44;98604.91;;;14.30;25.54
6532;BME280;3299;42.004;24.868;2023-03-13T14:38:21;98544.63;;;14.03;25.44
6532;BME280;3299;42.004;24.868;2023-03-13T14:40:48;98635.63;;;14.47;25.58
6532;BME280;3299;42.004;24.868;2023-03-13T14:43:35;98590.38;;;14.27;25.45
6532;BME280;3299;42.004;24.868;2023-03-13T14:46:28;98634.50;;;14.18;25.25
6532;BME280;3299;42.004;24.868;2023-03-13T14:48:54;98580.88;;;13.84;25.86
6532;BME280;3299;42.004;24.868;2023-03-13T14:51:25;98550.66;;;13.50;26.38
6532;BME280;3299;42.004;24.868;2023-03-13T14:53:59;98593.41;;;13.79;27.15
6532;BME280;3299;42.004;24.868;2023-03-13T14:56:32;98631.22;;;14.05;27.21
6532;BME280;3299;42.004;24.868;2023-03-13T14:59:25;98623.94;;;13.66;27.97
6532;BME280;3299;42.004;24.868;2023-03-13T15:01:59;98571.91;;;13.22;28.29
6532;BME280;3299;42.004;24.868;2023-03-13T15:07:25;98576.56;;;12.49;29.13
6532;BME280;3299;42.004;24.868;2023-03-13T15:09:51;98603.66;;;12.69;29.87
6532;BME280;3299;42.004;24.868;2023-03-13T15:12:22;98537.22;;;12.21;28.42
6532;BME280;3299;42.004;24.868;2023-03-13T15:14:49;98536.75;;;12.27;29.21
6532;BME280;3299;42.004;24.868;2023-03-13T15:19:51;98620.59;;;12.51;30.39
6532;BME280;3299;42.004;24.868;2023-03-13T15:22:20;98539.03;;;11.84;31.13
6532;BME280;3299;42.004;24.868;2023-03-13T15:24:48;98617.34;;;12.36;31.22